Time;durP1;ratioP1;P1;durP2;ratioP2;P2;SDS_P1;SDS_P2;PMS_P1;PMS_P2;Temp;Humidity;BMP_temperature;BMP_pressure;BME280_temperature;BME280_humidity;BME280_pressure;Samples;Min_cycle;Max_cycle;Signal;HPM_P1;HPM_P2
2023/04/14 00:00:47;;;;;;;4.28;3.78;;;;;;;6.64;91.55;97329.34;4174474;28;20235;-76
2023/04/14 00:02:51;;;;;;;3.78;3.28;;;;;;;6.66;91.39;97328.31;4185242;28;20275;-76
2023/04/14 00:04:55;;;;;;;4.10;3.70;;;;;;;6.66;91.92;97332.66;4179747;28;20251;-76
2023/04/14 00:06:58;;;;;;;4.80;3.45;;;;;;;6.69;92.38;97327.28;4186698;28;20232;-76
2023/04/14 00:09:01;;;;;;;5.78;3.50;;;;;;;6.71;92.55;97328.03;4185168;28;20233;-76
2023/04/14 00:11:05;;;;;;;5.20;3.70;;;;;;;6.71;93.08;97335.81;4186566;28;20193;-76
2023/04/14 00:13:08;;;;;;;4.80;3.90;;;;;;;6.71;92.72;97330.63;4168995;28;20229;-76
2023/04/14 00:15:11;;;;;;;5.53;3.22;;;;;;;6.69;93.36;97322.94;4181656;28;20218;-76
2023/04/14 00:17:15;;;;;;;3.50;3.03;;;;;;;6.68;93.28;97329.03;4186425;28;20690;-76
2023/04/14 00:19:19;;;;;;;5.03;3.75;;;;;;;6.70;93.41;97332.34;4188459;28;20229;-76
2023/04/14 00:21:22;;;;;;;4.75;2.80;;;;;;;6.70;93.76;97327.19;4188539;28;20294;-76
2023/04/14 00:23:26;;;;;;;3.58;2.60;;;;;;;6.70;93.29;97328.94;4184916;28;20215;-76
2023/04/14 00:25:29;;;;;;;3.28;2.63;;;;;;;6.72;93.26;97327.06;4189874;28;20207;-76
2023/04/14 00:27:33;;;;;;;6.35;2.85;;;;;;;6.71;92.96;97331.44;4186262;28;20209;-76
2023/04/14 00:29:37;;;;;;;4.43;3.22;;;;;;;6.71;93.94;97330.63;4191915;28;20234;-76
2023/04/14 00:31:40;;;;;;;3.70;3.00;;;;;;;6.71;94.27;97338.38;4185954;28;20327;-76
2023/04/14 00:33:43;;;;;;;5.57;2.83;;;;;;;6.72;93.27;97342.63;4186535;28;20645;-76
2023/04/14 00:35:48;;;;;;;3.60;2.80;;;;;;;6.71;93.30;97344.38;4171183;28;20234;-76
2023/04/14 00:37:51;;;;;;;3.30;2.40;;;;;;;6.71;94.67;97348.75;4170857;28;20267;-76
2023/04/14 00:39:54;;;;;;;5.45;2.47;;;;;;;6.70;94.23;97350.50;4186919;28;20248;-76
2023/04/14 00:41:57;;;;;;;3.85;2.95;;;;;;;6.70;94.45;97345.31;4171235;28;20217;-76
2023/04/14 00:44:01;;;;;;;3.80;2.63;;;;;;;6.70;93.58;97352.25;4175590;28;20205;-76
2023/04/14 00:46:05;;;;;;;3.00;2.25;;;;;;;6.73;94.92;97352.06;4191705;28;20204;-76
2023/04/14 00:48:09;;;;;;;3.35;3.05;;;;;;;6.75;94.25;97355.38;4195162;28;20280;-76
2023/04/14 00:50:13;;;;;;;4.63;3.15;;;;;;;6.73;94.37;97354.66;4191075;28;20201;-76
2023/04/14 00:52:17;;;;;;;3.00;2.35;;;;;;;6.74;94.13;97358.91;4188801;28;20216;-76
2023/04/14 00:54:21;;;;;;;4.85;2.70;;;;;;;6.76;93.63;97365.63;4189081;28;20240;-76
2023/04/14 00:56:25;;;;;;;4.32;3.20;;;;;;;6.77;94.15;97361.31;4173295;28;20218;-76
2023/04/14 00:58:29;;;;;;;5.60;3.08;;;;;;;6.77;93.43;97364.72;4182837;28;20661;-76
2023/04/14 01:00:33;;;;;;;7.03;2.80;;;;;;;6.78;93.40;97373.31;4187847;28;20235;-76
2023/04/14 01:02:37;;;;;;;5.38;2.92;;;;;;;6.78;94.18;97368.13;4169666;28;20207;-76
2023/04/14 01:04:40;;;;;;;4.13;2.80;;;;;;;6.78;94.28;97365.53;4191982;28;20260;-76
2023/04/14 01:06:56;;;;;;;8.75;3.60;;;;;;;6.78;94.73;97370.72;4170997;28;20212;-76
2023/04/14 01:09:01;;;;;;;3.75;3.00;;;;;;;6.80;93.72;97366.28;4189813;28;20766;-76
2023/04/14 01:11:10;;;;;;;3.92;2.75;;;;;;;6.80;93.71;97371.47;4187720;28;20209;-76
2023/04/14 01:13:23;;;;;;;4.95;2.75;;;;;;;6.81;93.83;97378.28;4164237;28;20300;-76
2023/04/14 01:15:30;;;;;;;5.40;2.90;;;;;;;6.82;93.70;97374.78;4188255;28;20218;-76
2023/04/14 01:17:37;;;;;;;4.22;2.65;;;;;;;6.77;93.76;97371.66;4189836;28;20210;-76
2023/04/14 01:19:56;;;;;;;4.35;3.10;;;;;;;6.78;93.96;97375.91;4185809;28;20322;-76
2023/04/14 01:22:04;;;;;;;5.55;3.28;;;;;;;6.73;93.17;97378.78;4196120;28;20201;-76
2023/04/14 01:24:30;;;;;;;4.35;2.90;;;;;;;6.72;93.50;97378.88;4191766;28;20262;-76
2023/04/14 01:26:33;;;;;;;8.00;2.80;;;;;;;6.72;93.64;97384.94;4186785;28;20201;-76
2023/04/14 01:28:46;;;;;;;4.82;2.97;;;;;;;6.73;93.62;97383.16;4179737;28;20198;-76
2023/04/14 01:31:02;;;;;;;5.03;3.08;;;;;;;6.73;94.01;97388.34;4204329;28;20671;-76
2023/04/14 01:33:08;;;;;;;4.95;2.80;;;;;;;6.74;94.15;97388.22;4191776;28;20631;-76
2023/04/14 01:35:13;;;;;;;6.85;3.20;;;;;;;6.77;94.00;97389.81;4192751;28;20562;-76
2023/04/14 01:37:19;;;;;;;3.85;3.05;;;;;;;6.77;93.67;97389.81;4176296;28;20225;-76
2023/04/14 01:39:26;;;;;;;4.70;2.90;;;;;;;6.78;94.57;97389.72;4180050;28;20239;-76
2023/04/14 01:41:31;;;;;;;4.50;3.00;;;;;;;6.80;94.31;97399.97;4175547;28;20207;-76
2023/04/14 01:43:40;;;;;;;5.43;3.00;;;;;;;6.81;94.28;97394.69;4174468;28;20205;-76
2023/04/14 01:45:48;;;;;;;5.78;3.35;;;;;;;6.85;95.45;97395.31;4172689;28;20697;-76
2023/04/14 01:47:52;;;;;;;4.65;3.20;;;;;;;6.85;94.69;97390.97;4185926;28;20231;-77
2023/04/14 01:49:57;;;;;;;7.82;3.50;;;;;;;6.86;94.27;97397.81;4172215;28;20250;-76
2023/04/14 01:52:01;;;;;;;5.75;3.63;;;;;;;6.88;94.29;97395.13;4185033;28;20445;-76
2023/04/14 01:54:05;;;;;;;5.20;3.55;;;;;;;6.87;95.06;97394.31;4194080;28;20214;-76
2023/04/14 01:56:09;;;;;;;8.35;3.75;;;;;;;6.87;94.80;97398.63;4190160;28;20209;-76
2023/04/14 01:58:12;;;;;;;5.38;3.30;;;;;;;6.86;95.16;97397.00;4188294;28;20202;-76
2023/04/14 02:00:17;;;;;;;5.45;3.22;;;;;;;6.85;94.60;97396.13;4173316;28;20322;-76
2023/04/14 02:02:21;;;;;;;5.18;3.38;;;;;;;6.84;94.23;97393.66;4185268;28;20229;-76
2023/04/14 02:04:25;;;;;;;6.70;3.63;;;;;;;6.86;94.57;97397.00;4171432;28;20229;-76
2023/04/14 02:06:31;;;;;;;4.50;3.78;;;;;;;6.86;93.38;97394.41;4186756;28;20297;-76
2023/04/14 02:08:36;;;;;;;4.97;3.53;;;;;;;6.84;94.43;97404.88;4184835;28;20826;-76
2023/04/14 02:10:42;;;;;;;5.95;3.90;;;;;;;6.83;94.35;97408.38;4189301;28;20215;-76
2023/04/14 02:12:45;;;;;;;5.65;4.00;;;;;;;6.82;94.50;97406.69;4192930;28;20619;-76
2023/04/14 02:14:50;;;;;;;5.35;4.00;;;;;;;6.83;94.38;97412.72;4174861;28;20205;-76
2023/04/14 02:16:53;;;;;;;8.38;4.07;;;;;;;6.82;93.86;97408.47;4172943;28;20213;-76
2023/04/14 02:18:57;;;;;;;5.53;3.88;;;;;;;6.82;94.42;97405.88;4185534;28;20203;-76
2023/04/14 02:21:02;;;;;;;6.43;3.95;;;;;;;6.80;94.48;97393.03;4185759;28;20885;-76
2023/04/14 02:23:06;;;;;;;6.53;3.60;;;;;;;6.79;94.38;97406.06;4183560;28;20225;-76
2023/04/14 02:25:10;;;;;;;5.40;3.70;;;;;;;6.80;94.48;97403.38;4188368;28;20201;-76
2023/04/14 02:27:16;;;;;;;3.92;3.42;;;;;;;6.80;93.81;97399.97;4187577;28;20238;-76
2023/04/14 02:29:22;;;;;;;8.57;4.35;;;;;;;6.80;94.27;97405.16;4188819;28;20201;-76
2023/04/14 02:31:25;;;;;;;5.97;3.88;;;;;;;6.78;93.40;97400.06;4186446;28;20304;-76
2023/04/14 02:33:31;;;;;;;6.18;4.05;;;;;;;6.77;93.44;97400.16;4189765;28;20265;-76
2023/04/14 02:35:39;;;;;;;5.90;3.63;;;;;;;6.74;94.18;97401.19;4178808;28;20224;-76
2023/04/14 02:37:46;;;;;;;4.10;3.40;;;;;;;6.74;94.57;97398.59;4182025;28;20209;-76
2023/04/14 02:39:56;;;;;;;4.63;3.22;;;;;;;6.71;94.47;97396.22;4169437;28;20210;-76
2023/04/14 02:42:04;;;;;;;7.90;4.38;;;;;;;6.71;94.06;97400.56;4180875;28;20226;-76
2023/04/14 02:44:13;;;;;;;4.95;3.60;;;;;;;6.70;93.59;97401.47;4186961;28;20592;-76
2023/04/14 02:46:17;;;;;;;4.05;3.17;;;;;;;6.69;93.75;97400.66;4192371;28;20211;-76
2023/04/14 02:48:24;;;;;;;7.45;4.35;;;;;;;6.66;93.04;97407.78;4189524;28;20710;-76
2023/04/14 02:50:28;;;;;;;5.50;3.17;;;;;;;6.64;93.96;97410.47;4186645;28;20204;-76
2023/04/14 02:52:39;;;;;;;5.20;3.67;;;;;;;6.66;93.37;97410.38;4185981;28;20207;-76
2023/04/14 02:54:43;;;;;;;8.15;3.88;;;;;;;6.62;93.50;97409.75;4174883;28;20205;-76
2023/04/14 02:56:49;;;;;;;5.65;3.60;;;;;;;6.60;93.19;97410.78;4183412;28;20744;-76
2023/04/14 02:58:57;;;;;;;8.85;3.50;;;;;;;6.58;92.90;97407.44;4187729;28;20204;-76
2023/04/14 03:01:02;;;;;;;5.40;4.32;;;;;;;6.55;92.88;97402.47;4188643;28;20224;-76
2023/04/14 03:03:05;;;;;;;5.70;3.60;;;;;;;6.53;93.06;97400.91;4168927;28;20209;-76
2023/04/14 03:05:10;;;;;;;7.75;4.10;;;;;;;6.57;93.38;97410.97;4174817;28;20856;-76
2023/04/14 03:07:38;;;;;;;5.75;4.35;;;;;;;6.54;92.65;97399.97;4185817;28;20216;-76
2023/04/14 03:09:41;;;;;;;6.35;4.00;;;;;;;6.52;92.68;97392.28;4169200;28;20295;-76
2023/04/14 03:11:45;;;;;;;6.55;4.25;;;;;;;6.50;92.57;97401.94;4187509;28;20201;-76
2023/04/14 03:13:52;;;;;;;5.13;4.07;;;;;;;6.48;92.04;97398.63;4174042;28;20231;-76
2023/04/14 03:15:56;;;;;;;5.93;3.97;;;;;;;6.46;91.80;97400.44;4188163;28;20218;-76
2023/04/14 03:18:00;;;;;;;4.90;3.83;;;;;;;6.41;92.00;97389.56;4187095;28;20206;-76
2023/04/14 03:20:05;;;;;;;5.63;3.80;;;;;;;6.40;92.01;97392.25;4174457;28;20271;-76
2023/04/14 03:22:10;;;;;;;5.60;3.60;;;;;;;6.36;92.33;97401.13;4185746;28;20737;-76
2023/04/14 03:24:18;;;;;;;4.78;3.53;;;;;;;6.32;92.17;97405.66;4169067;28;20739;-76
2023/04/14 03:26:21;;;;;;;6.53;4.20;;;;;;;6.29;92.50;97392.91;4194787;28;20206;-76
2023/04/14 03:28:25;;;;;;;6.97;4.10;;;;;;;6.31;92.54;97393.63;4185284;28;20209;-76
2023/04/14 03:30:32;;;;;;;4.50;3.60;;;;;;;6.28;92.23;97391.25;4188224;28;20205;-76
2023/04/14 03:32:40;;;;;;;5.05;3.20;;;;;;;6.24;92.45;97389.78;4179816;28;20218;-76
2023/04/14 03:34:48;;;;;;;5.07;3.45;;;;;;;6.21;92.91;97391.75;4170421;28;20202;-76
2023/04/14 03:36:53;;;;;;;3.80;3.13;;;;;;;6.18;92.91;97395.34;4169641;28;20293;-76
2023/04/14 03:39:00;;;;;;;5.72;3.25;;;;;;;6.19;92.55;97385.81;4188572;28;20228;-76
2023/04/14 03:41:08;;;;;;;5.80;3.90;;;;;;;6.18;92.23;97397.94;4172513;28;20226;-76
2023/04/14 03:43:13;;;;;;;6.68;4.00;;;;;;;6.20;92.56;97403.03;4182249;28;20269;-76
2023/04/14 03:45:17;;;;;;;7.57;5.38;;;;;;;6.19;92.59;97404.78;4183695;28;20220;-76
2023/04/14 03:47:23;;;;;;;8.07;5.18;;;;;;;6.21;92.31;97405.53;4169728;28;20700;-76
2023/04/14 03:49:27;;;;;;;8.43;4.50;;;;;;;6.23;92.33;97395.88;4186519;28;20209;-76
2023/04/14 03:51:32;;;;;;;9.77;6.60;;;;;;;6.23;92.34;97390.72;4184074;28;20214;-76
2023/04/14 03:53:36;;;;;;;8.60;6.75;;;;;;;6.20;92.43;97406.44;4172456;28;20200;-76
2023/04/14 03:55:41;;;;;;;27.17;6.38;;;;;;;6.19;92.31;97396.19;4173976;28;20284;-76
2023/04/14 03:57:45;;;;;;;40.83;6.13;;;;;;;6.14;91.97;97393.88;4169966;28;20204;-76
2023/04/14 03:59:49;;;;;;;18.98;4.97;;;;;;;6.08;92.72;97390.03;4186395;28;20203;-76
2023/04/14 04:01:56;;;;;;;24.88;6.20;;;;;;;6.05;92.42;97395.38;4169693;28;20848;-76
2023/04/14 04:04:02;;;;;;;30.88;5.90;;;;;;;5.99;92.45;97385.41;4185174;28;20238;-76
2023/04/14 04:06:06;;;;;;;41.05;6.18;;;;;;;5.96;92.37;97390.78;4184976;28;20334;-76
2023/04/14 04:08:11;;;;;;;17.00;5.15;;;;;;;5.91;92.54;97391.06;4170542;28;20204;-76
2023/04/14 04:10:15;;;;;;;20.58;5.10;;;;;;;5.88;92.78;97392.97;4186584;28;20204;-76
2023/04/14 04:12:20;;;;;;;34.85;5.80;;;;;;;5.86;92.64;97395.66;4185512;28;20214;-76
2023/04/14 04:14:25;;;;;;;19.48;4.70;;;;;;;5.83;92.69;97389.84;4175230;28;20219;-76
2023/04/14 04:16:30;;;;;;;21.50;5.80;;;;;;;5.80;93.13;97393.47;4169422;28;20210;-76
2023/04/14 04:18:34;;;;;;;34.08;5.03;;;;;;;5.77;93.06;97387.63;4173334;28;20216;-76
2023/04/14 04:20:40;;;;;;;21.20;5.00;;;;;;;5.73;93.14;97379.19;4176339;28;20202;-76
2023/04/14 04:22:45;;;;;;;19.30;6.50;;;;;;;5.70;93.30;97383.75;4161018;28;20259;-76
2023/04/14 04:24:48;;;;;;;18.60;5.28;;;;;;;5.69;93.00;97377.72;4191975;28;20207;-76
2023/04/14 04:26:58;;;;;;;11.35;4.65;;;;;;;5.66;92.75;97379.66;4189001;28;20252;-76
2023/04/14 04:29:02;;;;;;;24.38;5.15;;;;;;;5.59;92.81;97386.13;4187179;28;20282;-76
2023/04/14 04:31:06;;;;;;;18.80;4.57;;;;;;;5.54;92.80;97383.00;4170862;28;20204;-76
2023/04/14 04:33:10;;;;;;;30.67;6.40;;;;;;;5.51;93.07;97387.53;4186353;28;20788;-76
2023/04/14 04:35:14;;;;;;;17.23;5.07;;;;;;;5.54;92.75;97393.34;4185765;28;20201;-76
2023/04/14 04:37:21;;;;;;;18.67;6.93;;;;;;;5.57;93.30;97392.31;4182338;28;20214;-76
2023/04/14 04:39:24;;;;;;;21.23;5.28;;;;;;;5.51;92.87;97393.50;4189964;28;20204;-76
2023/04/14 04:41:29;;;;;;;8.55;4.30;;;;;;;5.48;92.97;97396.28;4187688;28;20226;-76
2023/04/14 04:43:35;;;;;;;15.63;4.55;;;;;;;5.43;92.84;97395.72;4185587;28;20247;-76
2023/04/14 04:45:59;;;;;;;14.02;3.95;;;;;;;5.40;92.89;97395.09;4187376;28;20214;-76
2023/04/14 04:48:04;;;;;;;8.63;3.90;;;;;;;5.37;93.05;97397.84;4175879;28;20236;-76
2023/04/14 04:50:08;;;;;;;17.25;4.15;;;;;;;5.37;92.26;97395.28;4185465;28;20271;-76
2023/04/14 04:52:11;;;;;;;13.27;3.50;;;;;;;5.32;91.88;97407.63;4190416;28;20294;-76
2023/04/14 04:54:18;;;;;;;4.65;3.60;;;;;;;5.24;93.49;97413.22;4177342;28;20216;-76
2023/04/14 04:56:21;;;;;;;8.15;4.30;;;;;;;5.23;92.28;97406.41;4172615;28;20210;-76
2023/04/14 04:58:24;;;;;;;8.13;4.40;;;;;;;5.20;92.81;97410.91;4182513;28;20678;-76
2023/04/14 05:00:28;;;;;;;7.45;4.10;;;;;;;5.22;92.33;97407.31;4187792;28;21180;-76
2023/04/14 05:02:31;;;;;;;10.65;5.30;;;;;;;5.18;92.10;97408.41;4187578;28;20227;-76
2023/04/14 05:04:34;;;;;;;22.48;5.80;;;;;;;5.09;91.99;97402.97;4176414;28;20273;-76
2023/04/14 05:06:37;;;;;;;10.20;4.20;;;;;;;5.11;93.24;97402.88;4188724;28;20214;-76
2023/04/14 05:08:40;;;;;;;10.40;3.70;;;;;;;5.10;93.02;97401.19;4184638;28;20219;-76
2023/04/14 05:10:45;;;;;;;10.23;4.20;;;;;;;5.12;92.49;97404.53;4190038;28;20202;-76
2023/04/14 05:12:48;;;;;;;15.80;4.90;;;;;;;5.08;92.53;97408.22;4189647;28;20203;-76
2023/04/14 05:14:51;;;;;;;14.10;4.40;;;;;;;5.10;92.95;97416.69;4180337;28;20202;-76
2023/04/14 05:16:55;;;;;;;9.23;3.75;;;;;;;5.12;92.84;97425.22;4164292;28;20525;-76
2023/04/14 05:18:59;;;;;;;11.90;4.93;;;;;;;5.08;92.82;97418.53;4193875;28;20202;-76
2023/04/14 05:21:03;;;;;;;9.57;4.95;;;;;;;5.06;93.85;97420.41;4184927;28;20669;-76
2023/04/14 05:23:07;;;;;;;15.38;4.65;;;;;;;5.09;94.71;97417.63;4184869;28;20607;-76
2023/04/14 05:25:10;;;;;;;29.05;6.20;;;;;;;5.12;94.45;97425.22;4190843;28;20210;-76
2023/04/14 05:27:14;;;;;;;16.90;3.80;;;;;;;5.13;94.34;97437.19;4184902;28;20256;-76
2023/04/14 05:29:18;;;;;;;14.73;4.63;;;;;;;5.17;95.42;97440.38;4181966;28;20232;-76
2023/04/14 05:31:22;;;;;;;8.10;4.30;;;;;;;5.20;95.77;97450.53;4182930;28;20241;-76
2023/04/14 05:33:25;;;;;;;19.05;5.47;;;;;;;5.23;96.00;97445.19;4170402;28;20306;-76
2023/04/14 05:35:28;;;;;;;21.00;7.05;;;;;;;5.28;96.91;97445.75;4188118;28;20205;-76
2023/04/14 05:37:32;;;;;;;19.25;6.15;;;;;;;5.33;96.27;97445.47;4172487;28;20803;-76
2023/04/14 05:39:37;;;;;;;19.98;4.50;;;;;;;5.34;97.75;97452.31;4189494;28;20569;-80
2023/04/14 05:41:41;;;;;;;19.95;4.68;;;;;;;5.38;97.31;97454.63;4185593;28;20214;-81
2023/04/14 05:43:45;;;;;;;15.52;4.90;;;;;;;5.42;97.71;97461.28;4184014;28;20226;-81
2023/04/14 05:45:48;;;;;;;8.18;5.05;;;;;;;5.48;97.96;97463.50;4167929;28;20206;-81
2023/04/14 05:47:51;;;;;;;15.68;5.70;;;;;;;5.56;97.76;97466.47;4171689;28;20212;-80
2023/04/14 05:49:55;;;;;;;14.50;5.53;;;;;;;5.64;98.13;97465.09;4172596;28;20599;-80
2023/04/14 05:51:58;;;;;;;8.75;5.38;;;;;;;5.70;98.32;97466.50;4189119;28;20287;-80
2023/04/14 05:54:01;;;;;;;8.45;5.90;;;;;;;5.80;97.95;97472.81;4190211;28;20221;-80
2023/04/14 05:56:05;;;;;;;11.40;5.55;;;;;;;5.95;97.97;97479.66;4183331;28;20245;-80
2023/04/14 05:58:09;;;;;;;12.75;5.90;;;;;;;6.11;98.04;97487.22;4187205;28;20194;-81
2023/04/14 06:00:14;;;;;;;9.05;5.60;;;;;;;6.28;97.39;97501.75;4191303;28;20706;-80
2023/04/14 06:02:17;;;;;;;10.43;5.95;;;;;;;6.37;96.61;97498.59;4173799;28;20678;-80
2023/04/14 06:04:20;;;;;;;16.38;6.50;;;;;;;6.53;96.21;97512.28;4185156;28;20582;-80
2023/04/14 06:06:24;;;;;;;14.55;7.10;;;;;;;6.74;96.69;97514.38;4192428;28;20771;-80
2023/04/14 06:08:28;;;;;;;13.27;8.25;;;;;;;7.01;96.71;97521.22;4157769;28;20213;-81
2023/04/14 06:10:32;;;;;;;13.15;6.43;;;;;;;7.26;94.51;97516.13;4173108;28;20237;-81
2023/04/14 06:12:36;;;;;;;8.40;5.85;;;;;;;7.47;94.44;97519.94;4191573;28;20222;-80
2023/04/14 06:14:39;;;;;;;9.38;5.57;;;;;;;7.70;94.27;97527.88;4185315;28;20196;-81
2023/04/14 06:16:45;;;;;;;9.13;6.35;;;;;;;7.98;93.81;97526.78;4170844;28;20204;-81
2023/04/14 06:18:48;;;;;;;7.95;5.80;;;;;;;8.22;92.15;97532.91;4189156;28;20291;-81
2023/04/14 06:20:51;;;;;;;8.50;6.10;;;;;;;8.52;91.70;97536.00;4189542;28;20274;-80
2023/04/14 06:22:54;;;;;;;9.02;6.30;;;;;;;8.81;92.12;97540.00;4193215;28;20224;-80
2023/04/14 06:24:57;;;;;;;6.30;5.70;;;;;;;9.03;89.85;97544.41;4188858;28;20276;-80
2023/04/14 06:27:02;;;;;;;7.13;6.07;;;;;;;9.24;90.89;97548.09;4185289;28;20205;-80
2023/04/14 06:29:06;;;;;;;11.73;9.70;;;;;;;9.39;90.83;97547.00;4190659;28;20209;-80
2023/04/14 06:31:10;;;;;;;15.10;12.50;;;;;;;9.57;89.77;97540.47;4186261;28;20235;-80
2023/04/14 06:33:14;;;;;;;8.77;6.88;;;;;;;9.84;90.39;97543.63;4192118;28;20232;-80
2023/04/14 06:35:17;;;;;;;10.57;6.82;;;;;;;10.06;89.38;97540.19;4189709;28;20303;-80
2023/04/14 06:37:35;;;;;;;11.13;5.95;;;;;;;10.32;88.96;97547.66;4166680;28;20233;-80
2023/04/14 06:39:38;;;;;;;8.23;6.90;;;;;;;10.43;86.42;97542.50;4189824;28;20202;-80
2023/04/14 06:41:42;;;;;;;7.97;6.53;;;;;;;10.61;86.57;97542.84;4181631;28;20658;-80
2023/04/14 06:43:48;;;;;;;10.73;7.63;;;;;;;10.80;86.78;97545.69;4169830;28;20219;-80
2023/04/14 06:45:51;;;;;;;8.13;6.00;;;;;;;11.00;85.11;97546.59;4188567;28;20783;-80
2023/04/14 06:47:54;;;;;;;8.13;6.15;;;;;;;10.99;83.84;97544.97;4159644;28;20656;-80
2023/04/14 06:49:59;;;;;;;6.43;5.70;;;;;;;11.10;83.56;97539.72;4187849;28;20753;-81
2023/04/14 06:52:02;;;;;;;7.20;6.00;;;;;;;11.37;84.82;97545.34;4189550;28;21209;-80
2023/04/14 06:54:05;;;;;;;9.00;6.27;;;;;;;11.63;85.97;97541.50;4164820;28;20711;-81
2023/04/14 06:56:08;;;;;;;10.67;7.00;;;;;;;11.73;82.16;97537.16;4187052;28;20628;-80
2023/04/14 06:58:12;;;;;;;5.77;5.17;;;;;;;11.84;82.45;97532.75;4168928;28;20628;-81
2023/04/14 07:00:15;;;;;;;6.17;5.30;;;;;;;11.91;83.08;97526.88;4189230;28;20791;-80
2023/04/14 07:02:18;;;;;;;5.70;5.13;;;;;;;12.14;81.96;97525.81;4172098;28;21216;-80
2023/04/14 07:04:22;;;;;;;6.73;5.30;;;;;;;12.31;80.91;97525.22;4180600;28;20648;-81
2023/04/14 07:06:26;;;;;;;6.40;4.30;;;;;;;12.38;79.71;97516.72;4189962;28;20619;-81
2023/04/14 07:08:31;;;;;;;7.07;5.00;;;;;;;12.55;80.95;97523.97;4172589;28;20738;-81
2023/04/14 07:10:34;;;;;;;7.20;4.60;;;;;;;12.72;77.34;97516.34;4194099;28;20636;-81
2023/04/14 07:12:38;;;;;;;9.10;4.50;;;;;;;12.87;77.00;97515.06;4189255;28;20636;-81
2023/04/14 07:14:41;;;;;;;6.80;4.63;;;;;;;12.99;76.02;97513.13;4185020;28;21277;-81
2023/04/14 07:16:44;;;;;;;5.57;3.70;;;;;;;12.89;76.68;97510.50;4182799;28;21233;-81
2023/04/14 07:18:47;;;;;;;6.83;3.83;;;;;;;12.73;75.60;97504.91;4192699;28;20979;-81
2023/04/14 07:20:51;;;;;;;6.97;3.70;;;;;;;12.73;74.97;97504.06;4184650;28;20628;-83
2023/04/14 07:22:56;;;;;;;8.50;4.30;;;;;;;12.76;76.09;97502.03;4182862;28;21024;-81
2023/04/14 07:24:59;;;;;;;6.70;3.90;;;;;;;12.69;74.47;97500.91;4169245;28;20680;-81
2023/04/14 07:27:02;;;;;;;7.20;4.50;;;;;;;12.76;75.79;97498.56;4175663;28;20755;-81
2023/04/14 07:29:05;;;;;;;7.40;4.40;;;;;;;12.90;78.94;97499.09;4151399;28;20648;-81
2023/04/14 07:31:09;;;;;;;5.50;4.30;;;;;;;13.14;77.99;97498.72;4180516;28;22515;-81
2023/04/14 07:33:12;;;;;;;7.63;4.70;;;;;;;13.32;76.58;97496.13;4166765;28;20639;-81
2023/04/14 07:35:16;;;;;;;7.67;5.17;;;;;;;13.39;76.84;97499.84;4173871;28;21071;-82
2023/04/14 07:37:19;;;;;;;7.60;4.30;;;;;;;13.55;74.65;97502.78;4176643;28;20639;-81
2023/04/14 07:39:24;;;;;;;6.07;3.80;;;;;;;13.65;74.22;97499.19;4180609;28;20640;-81
2023/04/14 07:41:29;;;;;;;8.20;3.60;;;;;;;13.76;73.48;97504.28;4180981;28;20631;-81
2023/04/14 07:43:34;;;;;;;6.40;3.60;;;;;;;13.87;72.44;97506.75;4174673;28;20652;-80
2023/04/14 07:45:37;;;;;;;5.53;3.63;;;;;;;13.92;72.21;97503.72;4190910;28;21073;-80
2023/04/14 07:47:41;;;;;;;8.37;4.03;;;;;;;14.02;72.61;97513.25;4188416;28;21296;-80
2023/04/14 07:49:44;;;;;;;6.83;4.60;;;;;;;14.13;74.42;97503.47;4186381;28;20748;-80
2023/04/14 07:51:48;;;;;;;10.13;5.30;;;;;;;14.12;72.55;97508.00;4185904;28;20756;-80
2023/04/14 07:53:51;;;;;;;9.10;4.50;;;;;;;14.07;72.49;97505.81;4188524;28;21234;-80
2023/04/14 07:55:57;;;;;;;9.47;4.93;;;;;;;14.21;72.60;97502.75;4182676;28;21222;-80
2023/04/14 07:58:00;;;;;;;9.17;4.93;;;;;;;14.32;72.68;97503.41;4192080;28;21314;-80
2023/04/14 08:00:04;;;;;;;8.10;4.33;;;;;;;14.48;71.80;97506.28;4191123;28;20636;-80
2023/04/14 08:02:14;;;;;;;6.10;4.43;;;;;;;14.52;72.87;97507.63;4185274;28;20625;-80
2023/04/14 08:04:17;;;;;;;8.17;4.00;;;;;;;14.54;73.56;97503.09;4185175;28;20668;-80
2023/04/14 08:06:21;;;;;;;5.07;3.63;;;;;;;14.64;74.82;97506.47;4170826;28;20639;-80
2023/04/14 08:08:24;;;;;;;7.37;3.83;;;;;;;14.58;73.58;97504.44;4184364;28;20679;-80
2023/04/14 08:10:28;;;;;;;5.20;3.43;;;;;;;14.61;71.44;97507.63;4186546;28;20628;-80
2023/04/14 08:12:32;;;;;;;9.63;4.20;;;;;;;14.78;71.84;97503.41;4188011;28;21235;-80
2023/04/14 08:14:35;;;;;;;9.70;3.60;;;;;;;14.85;71.00;97512.34;4188208;28;21236;-81
2023/04/14 08:16:38;;;;;;;5.93;3.70;;;;;;;14.88;70.30;97504.19;4182091;28;20678;-81
2023/04/14 08:18:42;;;;;;;6.03;4.07;;;;;;;14.83;71.02;97501.16;4185198;28;20640;-81
2023/04/14 08:20:45;;;;;;;6.87;4.30;;;;;;;14.80;72.43;97498.84;4186801;28;20732;-81
2023/04/14 08:22:48;;;;;;;13.70;5.80;;;;;;;14.91;72.22;97499.47;4183325;28;20690;-80
2023/04/14 08:24:52;;;;;;;10.93;4.07;;;;;;;14.96;71.59;97492.00;4185364;28;20653;-82
2023/04/14 08:26:56;;;;;;;7.50;3.87;;;;;;;14.96;69.66;97488.50;4184188;28;20641;-81
2023/04/14 08:29:00;;;;;;;10.23;3.60;;;;;;;15.01;71.66;97488.94;4168495;28;20739;-80
2023/04/14 08:31:05;;;;;;;8.17;3.87;;;;;;;14.94;72.66;97488.66;4185825;28;20711;-81
2023/04/14 08:33:08;;;;;;;10.43;4.20;;;;;;;14.93;73.68;97483.56;4183445;28;20645;-82
2023/04/14 08:35:11;;;;;;;11.60;5.40;;;;;;;15.13;73.07;97488.56;4180333;28;20752;-81
2023/04/14 08:37:34;;;;;;;7.07;4.00;;;;;;;15.21;70.13;97488.69;4183968;28;20630;-81
2023/04/14 08:39:38;;;;;;;6.37;3.80;;;;;;;15.22;71.43;97477.22;4182812;28;20634;-81
2023/04/14 08:41:42;;;;;;;9.07;4.50;;;;;;;15.32;69.53;97475.31;4183263;28;20744;-81
2023/04/14 08:43:45;;;;;;;6.27;2.90;;;;;;;15.35;70.04;97486.38;4180196;28;20695;-81
2023/04/14 08:45:51;;;;;;;11.30;2.90;;;;;;;15.32;69.86;97483.22;4187582;28;20685;-81
2023/04/14 08:47:55;;;;;;;12.07;3.57;;;;;;;15.50;69.25;97479.66;4170763;28;20682;-81
2023/04/14 08:50:04;;;;;;;11.00;2.80;;;;;;;15.74;69.82;97485.09;4184812;28;20660;-81
2023/04/14 08:52:10;;;;;;;6.40;2.40;;;;;;;15.61;67.99;97480.22;4188018;28;20667;-81
2023/04/14 08:54:14;;;;;;;6.13;2.10;;;;;;;15.80;70.43;97477.47;4186437;28;20629;-81
2023/04/14 08:56:18;;;;;;;5.90;2.30;;;;;;;16.00;67.92;97476.31;4186505;28;20638;-81
2023/04/14 08:58:22;;;;;;;5.90;2.50;;;;;;;16.10;67.68;97472.59;4185379;28;20644;-81
2023/04/14 09:00:26;;;;;;;4.80;2.20;;;;;;;16.16;66.36;97476.41;4185321;28;20633;-81
2023/04/14 09:02:31;;;;;;;6.77;2.70;;;;;;;16.13;64.88;97469.66;4182445;28;21262;-81
2023/04/14 09:04:36;;;;;;;6.33;2.60;;;;;;;16.22;66.56;97475.81;4190602;28;20673;-81
2023/04/14 09:06:39;;;;;;;7.33;3.00;;;;;;;16.30;65.18;97475.91;4183864;28;20695;-81
2023/04/14 09:08:43;;;;;;;4.63;2.40;;;;;;;16.38;66.79;97470.69;4188077;28;20645;-81
2023/04/14 09:10:46;;;;;;;6.73;2.60;;;;;;;16.41;67.06;97476.44;4188891;28;20637;-81
2023/04/14 09:12:50;;;;;;;6.30;2.30;;;;;;;16.43;65.71;97469.22;4187374;28;20637;-81
2023/04/14 09:14:53;;;;;;;5.83;2.57;;;;;;;16.45;65.01;97462.00;4187230;28;20646;-81
2023/04/14 09:16:56;;;;;;;8.53;2.77;;;;;;;16.46;65.64;97457.56;4185699;28;21000;-81
2023/04/14 09:19:02;;;;;;;5.37;2.73;;;;;;;16.57;67.51;97458.94;4187377;28;21180;-81
2023/04/14 09:21:11;;;;;;;7.07;2.80;;;;;;;16.66;66.58;97460.63;4189109;28;20718;-81
2023/04/14 09:23:34;;;;;;;5.00;2.93;;;;;;;16.73;67.00;97456.41;4183005;28;20650;-81
2023/04/14 09:25:38;;;;;;;7.25;2.97;;;;;;;16.82;63.79;97454.59;4186205;28;20760;-81
2023/04/14 09:27:41;;;;;;;6.10;2.70;;;;;;;16.80;63.91;97452.13;4185158;28;20635;-81
2023/04/14 09:29:45;;;;;;;7.23;2.77;;;;;;;16.90;65.68;97463.38;4190649;28;20641;-81
2023/04/14 09:31:48;;;;;;;6.23;2.70;;;;;;;16.93;66.07;97459.59;4183849;28;21191;-81
2023/04/14 09:33:51;;;;;;;6.20;2.83;;;;;;;16.94;64.25;97463.88;4185740;28;21206;-81
2023/04/14 09:35:56;;;;;;;7.03;2.67;;;;;;;16.96;64.60;97462.75;4185834;28;20646;-81
2023/04/14 09:37:59;;;;;;;6.63;2.53;;;;;;;17.01;64.65;97466.53;4187192;28;20647;-81
2023/04/14 09:40:02;;;;;;;10.00;2.83;;;;;;;16.98;65.84;97468.69;4173790;28;21273;-81
2023/04/14 09:42:05;;;;;;;6.17;2.93;;;;;;;17.00;64.75;97472.81;4185634;28;20695;-81
2023/04/14 09:44:08;;;;;;;7.60;2.27;;;;;;;16.98;61.85;97465.22;4186349;28;21525;-81
2023/04/14 09:46:12;;;;;;;7.93;2.33;;;;;;;16.92;64.12;97457.94;4186770;28;20713;-81
2023/04/14 09:48:15;;;;;;;6.07;2.10;;;;;;;16.82;63.63;97455.41;4187467;28;20644;-81
2023/04/14 09:50:18;;;;;;;5.83;2.00;;;;;;;16.81;63.66;97456.44;4187040;28;20662;-81